sensor_id;sensor_type;location;lat;lon;timestamp;pressure;altitude;pressure_sealevel;temperature;humidity
31331;BME280;34067;39.548;-76.088;2022-12-18T00:01:12;101003.27;;;4.19;36.47
31331;BME280;34067;39.548;-76.088;2022-12-18T00:03:42;101007.99;;;4.13;36.34
31331;BME280;34067;39.548;-76.088;2022-12-18T00:06:11;101006.91;;;4.87;36.01
31331;BME280;34067;39.548;-76.088;2022-12-18T00:08:39;101017.83;;;4.00;36.32
31331;BME280;34067;39.548;-76.088;2022-12-18T00:11:09;101020.94;;;3.68;36.95
31331;BME280;34067;39.548;-76.088;2022-12-18T00:13:38;101024.67;;;4.58;36.15
31331;BME280;34067;39.548;-76.088;2022-12-18T00:16:09;101027.57;;;3.61;36.55
31331;BME280;34067;39.548;-76.088;2022-12-18T00:18:38;101034.98;;;3.92;36.53
31331;BME280;34067;39.548;-76.088;2022-12-18T00:21:09;101038.69;;;2.83;37.17
31331;BME280;34067;39.548;-76.088;2022-12-18T00:23:38;101043.61;;;3.59;37.39
31331;BME280;34067;39.548;-76.088;2022-12-18T00:26:10;101047.95;;;3.11;37.51
31331;BME280;34067;39.548;-76.088;2022-12-18T00:28:38;101053.93;;;2.35;38.02
31331;BME280;34067;39.548;-76.088;2022-12-18T00:31:09;101048.80;;;3.28;38.16
31331;BME280;34067;39.548;-76.088;2022-12-18T00:33:38;101054.70;;;2.29;38.24
31331;BME280;34067;39.548;-76.088;2022-12-18T00:36:09;101061.72;;;2.93;38.00
31331;BME280;34067;39.548;-76.088;2022-12-18T00:38:37;101075.11;;;2.68;38.63
31331;BME280;34067;39.548;-76.088;2022-12-18T00:41:07;101078.94;;;1.81;39.30
31331;BME280;34067;39.548;-76.088;2022-12-18T00:43:34;101084.42;;;2.21;40.27
31331;BME280;34067;39.548;-76.088;2022-12-18T00:46:03;101097.00;;;2.44;40.07
31331;BME280;34067;39.548;-76.088;2022-12-18T00:48:32;101089.95;;;1.11;42.21
31331;BME280;34067;39.548;-76.088;2022-12-18T00:51:00;101086.07;;;-0.03;45.67
31331;BME280;34067;39.548;-76.088;2022-12-18T00:53:28;101088.10;;;1.52;44.88
31331;BME280;34067;39.548;-76.088;2022-12-18T00:55:56;101078.10;;;1.51;43.16
31331;BME280;34067;39.548;-76.088;2022-12-18T00:58:25;101074.11;;;1.25;44.26
31331;BME280;34067;39.548;-76.088;2022-12-18T01:00:52;101079.79;;;1.67;43.62
31331;BME280;34067;39.548;-76.088;2022-12-18T01:03:21;101075.89;;;1.85;43.88
31331;BME280;34067;39.548;-76.088;2022-12-18T01:05:49;101081.61;;;2.54;43.88
31331;BME280;34067;39.548;-76.088;2022-12-18T01:08:17;101077.19;;;2.22;44.09
31331;BME280;34067;39.548;-76.088;2022-12-18T01:10:45;101076.99;;;1.13;47.61
31331;BME280;34067;39.548;-76.088;2022-12-18T01:13:13;101078.78;;;-0.80;51.59
31331;BME280;34067;39.548;-76.088;2022-12-18T01:15:48;101083.28;;;0.30;51.84
31331;BME280;34067;39.548;-76.088;2022-12-18T01:18:16;101082.84;;;1.35;50.39
31331;BME280;34067;39.548;-76.088;2022-12-18T01:20:45;101082.18;;;1.47;47.71
31331;BME280;34067;39.548;-76.088;2022-12-18T01:23:13;101083.32;;;2.23;47.73
31331;BME280;34067;39.548;-76.088;2022-12-18T01:25:41;101089.31;;;1.22;49.30
31331;BME280;34067;39.548;-76.088;2022-12-18T01:28:09;101092.38;;;1.32;49.82
31331;BME280;34067;39.548;-76.088;2022-12-18T01:30:37;101096.54;;;1.44;49.74
31331;BME280;34067;39.548;-76.088;2022-12-18T01:33:06;101099.45;;;1.40;49.72
31331;BME280;34067;39.548;-76.088;2022-12-18T01:35:41;101114.97;;;2.01;47.80
31331;BME280;34067;39.548;-76.088;2022-12-18T01:38:09;101112.02;;;1.61;49.02
31331;BME280;34067;39.548;-76.088;2022-12-18T01:40:38;101116.56;;;1.84;47.69
31331;BME280;34067;39.548;-76.088;2022-12-18T01:43:07;101116.79;;;1.21;48.13
31331;BME280;34067;39.548;-76.088;2022-12-18T01:45:35;101116.40;;;0.91;49.35
31331;BME280;34067;39.548;-76.088;2022-12-18T01:48:07;101114.57;;;1.21;48.35
31331;BME280;34067;39.548;-76.088;2022-12-18T01:50:37;101113.86;;;0.94;48.88
31331;BME280;34067;39.548;-76.088;2022-12-18T01:53:10;101113.80;;;2.82;46.46
31331;BME280;34067;39.548;-76.088;2022-12-18T01:55:42;101119.28;;;1.77;47.59
31331;BME280;34067;39.548;-76.088;2022-12-18T01:58:10;101119.17;;;1.35;47.18
31331;BME280;34067;39.548;-76.088;2022-12-18T02:00:38;101123.94;;;1.55;47.42
31331;BME280;34067;39.548;-76.088;2022-12-18T02:03:06;101123.81;;;2.24;46.83
31331;BME280;34067;39.548;-76.088;2022-12-18T02:05:42;101129.58;;;1.27;48.96
31331;BME280;34067;39.548;-76.088;2022-12-18T02:08:16;101122.95;;;0.14;49.78
31331;BME280;34067;39.548;-76.088;2022-12-18T02:10:56;101127.01;;;1.32;49.71
31331;BME280;34067;39.548;-76.088;2022-12-18T02:13:37;101130.56;;;0.93;49.54
31331;BME280;34067;39.548;-76.088;2022-12-18T02:16:12;101135.22;;;1.73;48.34
31331;BME280;34067;39.548;-76.088;2022-12-18T02:18:45;101141.27;;;2.16;48.28
31331;BME280;34067;39.548;-76.088;2022-12-18T02:21:23;101138.12;;;1.48;48.65
31331;BME280;34067;39.548;-76.088;2022-12-18T02:24:00;101144.08;;;0.96;49.99
31331;BME280;34067;39.548;-76.088;2022-12-18T02:26:37;101141.99;;;0.36;50.33
31331;BME280;34067;39.548;-76.088;2022-12-18T02:29:13;101139.21;;;0.93;50.13
31331;BME280;34067;39.548;-76.088;2022-12-18T02:31:47;101141.72;;;0.00;50.82
31331;BME280;34067;39.548;-76.088;2022-12-18T02:34:17;101128.71;;;1.18;49.39
31331;BME280;34067;39.548;-76.088;2022-12-18T02:36:48;101129.40;;;2.15;48.24
31331;BME280;34067;39.548;-76.088;2022-12-18T02:39:20;101131.16;;;2.53;47.40
31331;BME280;34067;39.548;-76.088;2022-12-18T02:41:49;101132.35;;;1.68;47.97
31331;BME280;34067;39.548;-76.088;2022-12-18T02:44:18;101134.28;;;2.12;47.48
31331;BME280;34067;39.548;-76.088;2022-12-18T02:46:48;101129.80;;;1.83;48.16
31331;BME280;34067;39.548;-76.088;2022-12-18T02:49:27;101130.95;;;1.56;48.59
31331;BME280;34067;39.548;-76.088;2022-12-18T02:52:06;101115.50;;;1.12;50.06
31331;BME280;34067;39.548;-76.088;2022-12-18T02:54:44;101117.53;;;1.28;49.46
31331;BME280;34067;39.548;-76.088;2022-12-18T02:57:23;101116.61;;;1.20;49.06
31331;BME280;34067;39.548;-76.088;2022-12-18T02:59:58;101121.84;;;0.69;49.60
31331;BME280;34067;39.548;-76.088;2022-12-18T03:02:36;101120.87;;;1.24;49.34
31331;BME280;34067;39.548;-76.088;2022-12-18T03:05:13;101115.89;;;0.66;49.29
31331;BME280;34067;39.548;-76.088;2022-12-18T03:07:46;101113.80;;;0.83;50.76
31331;BME280;34067;39.548;-76.088;2022-12-18T03:10:21;101117.17;;;1.51;48.90
31331;BME280;34067;39.548;-76.088;2022-12-18T03:12:57;101112.40;;;2.34;48.21
31331;BME280;34067;39.548;-76.088;2022-12-18T03:15:31;101115.71;;;1.83;49.10
31331;BME280;34067;39.548;-76.088;2022-12-18T03:18:06;101126.07;;;0.57;49.00
31331;BME280;34067;39.548;-76.088;2022-12-18T03:20:37;101123.76;;;1.29;49.11
31331;BME280;34067;39.548;-76.088;2022-12-18T03:23:10;101125.48;;;1.22;48.83
31331;BME280;34067;39.548;-76.088;2022-12-18T03:25:42;101138.39;;;1.58;49.48
31331;BME280;34067;39.548;-76.088;2022-12-18T03:28:15;101135.14;;;0.86;49.90
31331;BME280;34067;39.548;-76.088;2022-12-18T03:30:45;101130.24;;;1.16;49.52
31331;BME280;34067;39.548;-76.088;2022-12-18T03:33:19;101129.53;;;1.48;49.54
31331;BME280;34067;39.548;-76.088;2022-12-18T03:35:50;101133.05;;;1.09;49.34
31331;BME280;34067;39.548;-76.088;2022-12-18T03:38:19;101128.24;;;1.58;50.33
31331;BME280;34067;39.548;-76.088;2022-12-18T03:40:58;101137.33;;;0.39;50.98
31331;BME280;34067;39.548;-76.088;2022-12-18T03:43:35;101131.82;;;1.31;50.36
31331;BME280;34067;39.548;-76.088;2022-12-18T03:46:10;101147.31;;;0.56;50.55
31331;BME280;34067;39.548;-76.088;2022-12-18T03:48:44;101130.16;;;1.18;49.92
31331;BME280;34067;39.548;-76.088;2022-12-18T03:51:18;101126.88;;;-0.00;50.16
31331;BME280;34067;39.548;-76.088;2022-12-18T03:53:54;101137.54;;;0.09;49.87
31331;BME280;34067;39.548;-76.088;2022-12-18T03:56:25;101133.60;;;0.23;50.61
31331;BME280;34067;39.548;-76.088;2022-12-18T03:58:56;101126.36;;;0.21;50.43
31331;BME280;34067;39.548;-76.088;2022-12-18T04:01:30;101123.32;;;-0.59;51.12
31331;BME280;34067;39.548;-76.088;2022-12-18T04:04:01;101118.99;;;-0.56;54.01
31331;BME280;34067;39.548;-76.088;2022-12-18T04:06:30;101121.06;;;-0.11;53.01
31331;BME280;34067;39.548;-76.088;2022-12-18T04:09:00;101123.20;;;-0.38;51.55
31331;BME280;34067;39.548;-76.088;2022-12-18T04:11:28;101128.56;;;-0.53;52.56
31331;BME280;34067;39.548;-76.088;2022-12-18T04:13:57;101138.11;;;-0.69;51.27
31331;BME280;34067;39.548;-76.088;2022-12-18T04:16:26;101132.54;;;0.02;50.40
31331;BME280;34067;39.548;-76.088;2022-12-18T04:18:54;101134.97;;;-0.68;49.47
31331;BME280;34067;39.548;-76.088;2022-12-18T04:21:22;101140.44;;;0.23;50.19
31331;BME280;34067;39.548;-76.088;2022-12-18T04:23:50;101141.39;;;-0.60;49.48
31331;BME280;34067;39.548;-76.088;2022-12-18T04:26:18;101140.55;;;-1.06;50.69
31331;BME280;34067;39.548;-76.088;2022-12-18T04:28:47;101147.50;;;-0.19;50.18
31331;BME280;34067;39.548;-76.088;2022-12-18T04:31:15;101140.39;;;-0.02;48.21
31331;BME280;34067;39.548;-76.088;2022-12-18T04:33:43;101150.90;;;0.60;48.08
31331;BME280;34067;39.548;-76.088;2022-12-18T04:36:11;101150.91;;;-0.16;47.95
31331;BME280;34067;39.548;-76.088;2022-12-18T04:38:39;101152.24;;;1.15;46.21
31331;BME280;34067;39.548;-76.088;2022-12-18T04:41:07;101153.82;;;1.81;45.10
31331;BME280;34067;39.548;-76.088;2022-12-18T04:43:37;101161.93;;;0.78;46.38
31331;BME280;34067;39.548;-76.088;2022-12-18T04:46:06;101159.13;;;1.68;45.83
31331;BME280;34067;39.548;-76.088;2022-12-18T04:48:35;101159.66;;;0.71;46.20
31331;BME280;34067;39.548;-76.088;2022-12-18T04:51:04;101162.48;;;1.23;46.21
31331;BME280;34067;39.548;-76.088;2022-12-18T04:53:33;101160.61;;;0.82;46.59
31331;BME280;34067;39.548;-76.088;2022-12-18T04:56:06;101157.51;;;0.56;47.10
31331;BME280;34067;39.548;-76.088;2022-12-18T04:58:34;101158.67;;;0.74;47.18
31331;BME280;34067;39.548;-76.088;2022-12-18T05:01:03;101155.75;;;1.41;45.72
31331;BME280;34067;39.548;-76.088;2022-12-18T05:03:31;101160.03;;;0.80;46.99
31331;BME280;34067;39.548;-76.088;2022-12-18T05:05:59;101154.03;;;0.96;47.24
31331;BME280;34067;39.548;-76.088;2022-12-18T05:08:27;101143.40;;;1.05;46.98
31331;BME280;34067;39.548;-76.088;2022-12-18T05:10:59;101151.10;;;-0.33;48.57
31331;BME280;34067;39.548;-76.088;2022-12-18T05:13:27;101135.96;;;0.37;47.84
31331;BME280;34067;39.548;-76.088;2022-12-18T05:15:56;101116.06;;;0.90;46.17
31331;BME280;34067;39.548;-76.088;2022-12-18T05:18:25;101110.30;;;0.15;47.63
31331;BME280;34067;39.548;-76.088;2022-12-18T05:20:54;101128.86;;;1.18;45.58
31331;BME280;34067;39.548;-76.088;2022-12-18T05:23:23;101117.59;;;0.33;46.92
31331;BME280;34067;39.548;-76.088;2022-12-18T05:25:52;101119.69;;;0.48;46.96
31331;BME280;34067;39.548;-76.088;2022-12-18T05:28:22;101119.26;;;0.23;46.81
31331;BME280;34067;39.548;-76.088;2022-12-18T05:30:52;101112.32;;;0.69;47.70
31331;BME280;34067;39.548;-76.088;2022-12-18T05:33:21;101108.06;;;-0.22;48.69
31331;BME280;34067;39.548;-76.088;2022-12-18T05:35:51;101092.05;;;0.94;48.43
31331;BME280;34067;39.548;-76.088;2022-12-18T05:38:19;101094.33;;;0.04;51.30
31331;BME280;34067;39.548;-76.088;2022-12-18T05:40:48;101100.37;;;0.32;49.21
31331;BME280;34067;39.548;-76.088;2022-12-18T05:43:16;101102.17;;;0.69;46.24
31331;BME280;34067;39.548;-76.088;2022-12-18T05:45:44;101110.97;;;1.82;44.48
31331;BME280;34067;39.548;-76.088;2022-12-18T05:48:13;101112.32;;;1.31;43.81
31331;BME280;34067;39.548;-76.088;2022-12-18T05:50:42;101108.17;;;1.86;43.81
31331;BME280;34067;39.548;-76.088;2022-12-18T05:53:12;101112.26;;;3.02;41.94
31331;BME280;34067;39.548;-76.088;2022-12-18T05:55:42;101113.17;;;3.24;41.32
31331;BME280;34067;39.548;-76.088;2022-12-18T05:58:11;101112.73;;;3.95;40.76
31331;BME280;34067;39.548;-76.088;2022-12-18T06:03:12;101118.76;;;3.51;40.14
31331;BME280;34067;39.548;-76.088;2022-12-18T06:05:44;101121.13;;;4.39;40.22
31331;BME280;34067;39.548;-76.088;2022-12-18T06:08:13;101136.57;;;2.30;41.23
31331;BME280;34067;39.548;-76.088;2022-12-18T06:10:42;101139.52;;;3.60;40.47
31331;BME280;34067;39.548;-76.088;2022-12-18T06:13:10;101136.38;;;4.08;40.42
31331;BME280;34067;39.548;-76.088;2022-12-18T06:15:38;101139.19;;;4.21;40.19
31331;BME280;34067;39.548;-76.088;2022-12-18T06:18:06;101148.67;;;3.30;39.98
31331;BME280;34067;39.548;-76.088;2022-12-18T06:20:33;101150.55;;;3.48;40.72
31331;BME280;34067;39.548;-76.088;2022-12-18T06:23:01;101151.24;;;4.18;39.99
31331;BME280;34067;39.548;-76.088;2022-12-18T06:25:30;101160.79;;;4.37;39.99
31331;BME280;34067;39.548;-76.088;2022-12-18T06:27:58;101167.90;;;4.09;39.59
31331;BME280;34067;39.548;-76.088;2022-12-18T06:30:26;101172.11;;;4.48;39.99
31331;BME280;34067;39.548;-76.088;2022-12-18T06:32:54;101172.91;;;4.08;39.58
31331;BME280;34067;39.548;-76.088;2022-12-18T06:35:22;101170.17;;;4.57;39.40
31331;BME280;34067;39.548;-76.088;2022-12-18T06:37:49;101169.57;;;4.03;39.31
31331;BME280;34067;39.548;-76.088;2022-12-18T06:40:17;101171.31;;;4.52;39.10
31331;BME280;34067;39.548;-76.088;2022-12-18T06:42:45;101174.53;;;5.05;39.64
31331;BME280;34067;39.548;-76.088;2022-12-18T06:45:14;101179.15;;;4.76;39.79
31331;BME280;34067;39.548;-76.088;2022-12-18T06:47:42;101179.54;;;4.74;39.75
31331;BME280;34067;39.548;-76.088;2022-12-18T06:50:10;101183.85;;;4.05;39.84
31331;BME280;34067;39.548;-76.088;2022-12-18T06:52:38;101193.52;;;3.12;40.51
31331;BME280;34067;39.548;-76.088;2022-12-18T06:55:06;101197.79;;;3.69;40.50
31331;BME280;34067;39.548;-76.088;2022-12-18T06:57:34;101204.36;;;3.69;40.33
31331;BME280;34067;39.548;-76.088;2022-12-18T07:00:05;101200.75;;;4.33;40.31
31331;BME280;34067;39.548;-76.088;2022-12-18T07:02:34;101195.94;;;3.95;40.19
31331;BME280;34067;39.548;-76.088;2022-12-18T07:05:01;101200.06;;;3.82;39.93
31331;BME280;34067;39.548;-76.088;2022-12-18T07:07:30;101198.91;;;4.22;40.26
31331;BME280;34067;39.548;-76.088;2022-12-18T07:09:58;101196.79;;;3.53;40.64
31331;BME280;34067;39.548;-76.088;2022-12-18T07:12:26;101198.18;;;4.18;40.53
31331;BME280;34067;39.548;-76.088;2022-12-18T07:14:55;101200.32;;;4.28;40.27
31331;BME280;34067;39.548;-76.088;2022-12-18T07:17:23;101198.56;;;4.30;40.51
31331;BME280;34067;39.548;-76.088;2022-12-18T07:19:51;101199.73;;;4.16;39.63
31331;BME280;34067;39.548;-76.088;2022-12-18T07:22:18;101201.16;;;3.80;40.02
31331;BME280;34067;39.548;-76.088;2022-12-18T07:24:46;101204.37;;;4.18;39.89
31331;BME280;34067;39.548;-76.088;2022-12-18T07:27:13;101201.30;;;4.41;40.03
31331;BME280;34067;39.548;-76.088;2022-12-18T07:29:41;101199.90;;;4.23;39.99
31331;BME280;34067;39.548;-76.088;2022-12-18T07:32:08;101195.49;;;4.17;40.21
31331;BME280;34067;39.548;-76.088;2022-12-18T07:34:36;101191.02;;;4.16;40.17
31331;BME280;34067;39.548;-76.088;2022-12-18T07:37:04;101189.66;;;3.73;40.75
31331;BME280;34067;39.548;-76.088;2022-12-18T07:39:33;101189.31;;;3.65;40.83
31331;BME280;34067;39.548;-76.088;2022-12-18T07:42:01;101192.93;;;4.33;40.65
31331;BME280;34067;39.548;-76.088;2022-12-18T07:44:29;101187.81;;;4.20;40.26
31331;BME280;34067;39.548;-76.088;2022-12-18T07:46:57;101185.74;;;4.08;40.43
31331;BME280;34067;39.548;-76.088;2022-12-18T07:49:24;101189.42;;;4.16;40.03
31331;BME280;34067;39.548;-76.088;2022-12-18T07:51:54;101195.50;;;3.70;40.56
31331;BME280;34067;39.548;-76.088;2022-12-18T07:54:23;101196.25;;;4.29;40.63
31331;BME280;34067;39.548;-76.088;2022-12-18T07:56:51;101187.80;;;3.82;40.76
31331;BME280;34067;39.548;-76.088;2022-12-18T07:59:19;101183.71;;;4.22;40.59
31331;BME280;34067;39.548;-76.088;2022-12-18T08:01:47;101179.95;;;3.37;40.76
31331;BME280;34067;39.548;-76.088;2022-12-18T08:04:14;101183.44;;;4.36;40.21
31331;BME280;34067;39.548;-76.088;2022-12-18T08:06:42;101191.13;;;4.57;40.22
31331;BME280;34067;39.548;-76.088;2022-12-18T08:09:10;101192.52;;;3.99;40.53
31331;BME280;34067;39.548;-76.088;2022-12-18T08:11:38;101190.57;;;4.13;40.61
31331;BME280;34067;39.548;-76.088;2022-12-18T08:14:06;101192.95;;;4.36;40.48
31331;BME280;34067;39.548;-76.088;2022-12-18T08:16:34;101196.48;;;3.99;40.64
31331;BME280;34067;39.548;-76.088;2022-12-18T08:19:03;101199.71;;;4.11;40.89
31331;BME280;34067;39.548;-76.088;2022-12-18T08:21:32;101201.29;;;4.30;40.50
31331;BME280;34067;39.548;-76.088;2022-12-18T08:24:01;101199.41;;;4.27;40.48
31331;BME280;34067;39.548;-76.088;2022-12-18T08:26:31;101193.72;;;4.19;40.39
31331;BME280;34067;39.548;-76.088;2022-12-18T08:29:00;101190.61;;;4.16;40.73
31331;BME280;34067;39.548;-76.088;2022-12-18T08:31:29;101192.20;;;4.13;41.12
31331;BME280;34067;39.548;-76.088;2022-12-18T08:33:57;101187.09;;;4.48;41.36
31331;BME280;34067;39.548;-76.088;2022-12-18T08:36:25;101190.57;;;4.46;41.30
31331;BME280;34067;39.548;-76.088;2022-12-18T08:38:54;101199.40;;;4.16;41.55
31331;BME280;34067;39.548;-76.088;2022-12-18T08:41:22;101194.86;;;3.00;42.80
31331;BME280;34067;39.548;-76.088;2022-12-18T08:43:50;101189.75;;;1.61;44.75
31331;BME280;34067;39.548;-76.088;2022-12-18T08:46:20;101182.47;;;0.80;45.55
31331;BME280;34067;39.548;-76.088;2022-12-18T08:48:50;101174.62;;;2.95;44.67
31331;BME280;34067;39.548;-76.088;2022-12-18T08:51:20;101177.48;;;1.71;43.19
31331;BME280;34067;39.548;-76.088;2022-12-18T08:53:48;101184.29;;;2.57;42.96
31331;BME280;34067;39.548;-76.088;2022-12-18T08:56:16;101186.23;;;2.91;42.80
31331;BME280;34067;39.548;-76.088;2022-12-18T08:58:44;101185.51;;;3.92;42.01
31331;BME280;34067;39.548;-76.088;2022-12-18T09:01:13;101179.86;;;4.56;41.23
31331;BME280;34067;39.548;-76.088;2022-12-18T09:03:40;101185.54;;;3.64;42.08
31331;BME280;34067;39.548;-76.088;2022-12-18T09:06:08;101181.82;;;3.62;42.30
31331;BME280;34067;39.548;-76.088;2022-12-18T09:08:36;101184.79;;;3.33;42.34
31331;BME280;34067;39.548;-76.088;2022-12-18T09:11:09;101181.55;;;3.51;41.80
31331;BME280;34067;39.548;-76.088;2022-12-18T09:13:38;101178.51;;;3.37;42.15
31331;BME280;34067;39.548;-76.088;2022-12-18T09:16:06;101176.98;;;3.60;41.68
31331;BME280;34067;39.548;-76.088;2022-12-18T09:18:34;101173.11;;;3.90;41.40
31331;BME280;34067;39.548;-76.088;2022-12-18T09:21:08;101165.88;;;3.07;42.19
31331;BME280;34067;39.548;-76.088;2022-12-18T09:23:37;101163.60;;;3.54;43.39
31331;BME280;34067;39.548;-76.088;2022-12-18T09:26:04;101167.01;;;3.80;41.13
31331;BME280;34067;39.548;-76.088;2022-12-18T09:28:33;101165.54;;;3.37;40.89
31331;BME280;34067;39.548;-76.088;2022-12-18T09:31:05;101167.77;;;4.12;41.14
31331;BME280;34067;39.548;-76.088;2022-12-18T09:33:34;101178.19;;;3.45;41.67
31331;BME280;34067;39.548;-76.088;2022-12-18T09:36:04;101181.87;;;4.00;41.40
31331;BME280;34067;39.548;-76.088;2022-12-18T09:38:33;101185.85;;;4.00;41.64
31331;BME280;34067;39.548;-76.088;2022-12-18T09:41:05;101187.72;;;4.06;41.52
31331;BME280;34067;39.548;-76.088;2022-12-18T09:43:41;101187.26;;;3.69;41.80
31331;BME280;34067;39.548;-76.088;2022-12-18T09:46:16;101185.17;;;3.83;41.91
31331;BME280;34067;39.548;-76.088;2022-12-18T09:48:48;101185.95;;;3.71;42.00
31331;BME280;34067;39.548;-76.088;2022-12-18T09:51:21;101182.25;;;3.86;42.22
31331;BME280;34067;39.548;-76.088;2022-12-18T09:53:55;101181.12;;;3.65;42.05
31331;BME280;34067;39.548;-76.088;2022-12-18T09:56:28;101183.77;;;3.40;42.23
31331;BME280;34067;39.548;-76.088;2022-12-18T09:58:59;101182.16;;;3.32;42.19
31331;BME280;34067;39.548;-76.088;2022-12-18T10:01:28;101190.56;;;2.89;42.12
31331;BME280;34067;39.548;-76.088;2022-12-18T10:03:59;101189.21;;;2.90;42.37
31331;BME280;34067;39.548;-76.088;2022-12-18T10:06:33;101187.77;;;4.32;42.19
31331;BME280;34067;39.548;-76.088;2022-12-18T10:09:09;101189.49;;;3.45;42.24
31331;BME280;34067;39.548;-76.088;2022-12-18T10:11:46;101196.67;;;3.69;42.25
31331;BME280;34067;39.548;-76.088;2022-12-18T10:14:20;101196.65;;;3.33;43.10
31331;BME280;34067;39.548;-76.088;2022-12-18T10:16:59;101191.52;;;3.99;42.35
31331;BME280;34067;39.548;-76.088;2022-12-18T10:19:38;101195.80;;;4.19;42.15
31331;BME280;34067;39.548;-76.088;2022-12-18T10:22:15;101194.28;;;4.18;42.45
31331;BME280;34067;39.548;-76.088;2022-12-18T10:24:52;101196.56;;;4.33;41.39
31331;BME280;34067;39.548;-76.088;2022-12-18T10:27:25;101195.32;;;4.21;41.68
31331;BME280;34067;39.548;-76.088;2022-12-18T10:29:54;101197.90;;;4.23;41.86
31331;BME280;34067;39.548;-76.088;2022-12-18T10:32:23;101200.05;;;4.12;41.46
31331;BME280;34067;39.548;-76.088;2022-12-18T10:34:53;101203.26;;;3.33;42.66
31331;BME280;34067;39.548;-76.088;2022-12-18T10:37:24;101203.57;;;4.22;42.13
31331;BME280;34067;39.548;-76.088;2022-12-18T10:40:09;101201.89;;;3.53;42.99
31331;BME280;34067;39.548;-76.088;2022-12-18T10:42:38;101204.28;;;3.39;44.23
31331;BME280;34067;39.548;-76.088;2022-12-18T10:45:15;101205.04;;;3.90;43.76
31331;BME280;34067;39.548;-76.088;2022-12-18T10:47:46;101204.10;;;3.93;43.45
31331;BME280;34067;39.548;-76.088;2022-12-18T10:50:23;101209.97;;;2.85;43.46
31331;BME280;34067;39.548;-76.088;2022-12-18T10:52:56;101213.78;;;3.19;42.89
31331;BME280;34067;39.548;-76.088;2022-12-18T10:55:30;101217.08;;;2.60;42.87
31331;BME280;34067;39.548;-76.088;2022-12-18T10:58:18;101218.00;;;3.25;42.61
31331;BME280;34067;39.548;-76.088;2022-12-18T11:01:04;101219.38;;;3.34;42.09
31331;BME280;34067;39.548;-76.088;2022-12-18T11:03:35;101219.21;;;3.14;42.49
31331;BME280;34067;39.548;-76.088;2022-12-18T11:06:05;101219.33;;;1.80;43.54
31331;BME280;34067;39.548;-76.088;2022-12-18T11:08:34;101221.84;;;2.63;43.23
31331;BME280;34067;39.548;-76.088;2022-12-18T11:11:02;101224.69;;;3.18;42.68
31331;BME280;34067;39.548;-76.088;2022-12-18T11:13:32;101223.57;;;2.40;42.91
31331;BME280;34067;39.548;-76.088;2022-12-18T11:16:00;101224.22;;;2.23;43.45
31331;BME280;34067;39.548;-76.088;2022-12-18T11:18:31;101222.87;;;2.21;43.89
31331;BME280;34067;39.548;-76.088;2022-12-18T11:21:06;101226.47;;;2.43;43.15
31331;BME280;34067;39.548;-76.088;2022-12-18T11:23:37;101224.97;;;1.94;43.57
31331;BME280;34067;39.548;-76.088;2022-12-18T11:26:12;101230.90;;;1.59;43.91
31331;BME280;34067;39.548;-76.088;2022-12-18T11:28:43;101235.87;;;1.65;44.70
31331;BME280;34067;39.548;-76.088;2022-12-18T11:31:22;101245.54;;;0.38;45.76
31331;BME280;34067;39.548;-76.088;2022-12-18T11:34:00;101247.14;;;-0.10;45.81
31331;BME280;34067;39.548;-76.088;2022-12-18T11:36:32;101251.28;;;-0.16;46.69
31331;BME280;34067;39.548;-76.088;2022-12-18T11:39:05;101252.94;;;0.69;45.29
31331;BME280;34067;39.548;-76.088;2022-12-18T11:41:43;101257.53;;;0.05;46.42
31331;BME280;34067;39.548;-76.088;2022-12-18T11:44:18;101254.59;;;0.09;47.08
31331;BME280;34067;39.548;-76.088;2022-12-18T11:46:51;101261.46;;;-0.34;47.48
31331;BME280;34067;39.548;-76.088;2022-12-18T11:49:24;101261.19;;;0.05;47.33
31331;BME280;34067;39.548;-76.088;2022-12-18T11:52:00;101259.69;;;-0.35;47.93
31331;BME280;34067;39.548;-76.088;2022-12-18T11:54:32;101260.21;;;0.43;46.57
31331;BME280;34067;39.548;-76.088;2022-12-18T11:57:06;101265.97;;;0.02;47.37
31331;BME280;34067;39.548;-76.088;2022-12-18T11:59:45;101277.27;;;-0.01;48.11
31331;BME280;34067;39.548;-76.088;2022-12-18T12:02:33;101273.91;;;0.03;48.53
31331;BME280;34067;39.548;-76.088;2022-12-18T12:05:23;101277.27;;;-0.26;48.74
31331;BME280;34067;39.548;-76.088;2022-12-18T12:07:57;101273.87;;;0.35;47.92
31331;BME280;34067;39.548;-76.088;2022-12-18T12:10:39;101279.92;;;0.99;47.10
31331;BME280;34067;39.548;-76.088;2022-12-18T12:13:21;101282.35;;;0.30;47.04
31331;BME280;34067;39.548;-76.088;2022-12-18T12:16:00;101289.80;;;0.68;46.43
31331;BME280;34067;39.548;-76.088;2022-12-18T12:18:36;101297.45;;;0.26;46.85
31331;BME280;34067;39.548;-76.088;2022-12-18T12:21:14;101304.14;;;-0.13;47.98
31331;BME280;34067;39.548;-76.088;2022-12-18T12:23:51;101312.70;;;-0.37;48.96
31331;BME280;34067;39.548;-76.088;2022-12-18T12:26:29;101314.70;;;-0.27;49.00
31331;BME280;34067;39.548;-76.088;2022-12-18T12:29:08;101315.59;;;0.07;48.42
31331;BME280;34067;39.548;-76.088;2022-12-18T12:31:55;101315.77;;;-0.99;49.64
31331;BME280;34067;39.548;-76.088;2022-12-18T12:34:33;101318.58;;;-0.02;49.14
31331;BME280;34067;39.548;-76.088;2022-12-18T12:37:17;101322.76;;;0.26;48.51
31331;BME280;34067;39.548;-76.088;2022-12-18T12:39:51;101324.80;;;-0.38;49.72
31331;BME280;34067;39.548;-76.088;2022-12-18T12:42:26;101327.83;;;-0.71;49.92
31331;BME280;34067;39.548;-76.088;2022-12-18T12:44:57;101334.90;;;-0.01;49.43
31331;BME280;34067;39.548;-76.088;2022-12-18T12:47:30;101331.53;;;-0.48;49.31
31331;BME280;34067;39.548;-76.088;2022-12-18T12:50:01;101338.62;;;0.71;48.15
31331;BME280;34067;39.548;-76.088;2022-12-18T12:52:34;101346.80;;;-0.10;49.11
31331;BME280;34067;39.548;-76.088;2022-12-18T12:55:07;101353.11;;;-0.31;49.06
31331;BME280;34067;39.548;-76.088;2022-12-18T12:57:43;101357.46;;;-0.52;49.56
31331;BME280;34067;39.548;-76.088;2022-12-18T13:00:16;101354.38;;;-1.56;50.80